createdAt,value
2019-03-30T00:01:55.951Z,7.80
2019-03-30T00:04:27.225Z,8.73
2019-03-30T00:06:58.292Z,7.93
2019-03-30T00:09:29.465Z,8.43
2019-03-30T00:12:00.615Z,8.07
2019-03-30T00:14:31.871Z,8.17
2019-03-30T00:17:04.086Z,8.17
2019-03-30T00:19:35.396Z,8.20
2019-03-30T00:22:06.589Z,8.23
2019-03-30T00:24:37.855Z,7.93
2019-03-30T00:27:08.952Z,7.63
2019-03-30T00:29:40.141Z,8.50
2019-03-30T00:32:11.394Z,9.17
2019-03-30T00:34:42.600Z,8.73
2019-03-30T00:37:13.769Z,8.40
2019-03-30T00:39:44.964Z,9.10
2019-03-30T00:42:16.210Z,7.73
2019-03-30T00:44:47.426Z,8.57
2019-03-30T00:47:18.592Z,8.97
2019-03-30T00:49:50.242Z,8.83
2019-03-30T00:52:21.505Z,8.40
2019-03-30T00:54:52.622Z,9.13
2019-03-30T00:57:23.798Z,9.07
2019-03-30T00:59:55.064Z,8.77
2019-03-30T01:02:26.320Z,8.17
2019-03-30T01:04:57.579Z,9.13
2019-03-30T01:07:28.822Z,8.63
2019-03-30T01:09:59.990Z,9.27
2019-03-30T01:12:31.137Z,9.33
2019-03-30T01:15:02.411Z,8.83
2019-03-30T01:17:33.558Z,9.47
2019-03-30T01:20:05.352Z,8.70
2019-03-30T01:22:36.522Z,8.63
2019-03-30T01:25:08.128Z,8.17
2019-03-30T01:27:39.333Z,9.37
2019-03-30T01:30:22.550Z,9.37
2019-03-30T01:32:43.516Z,10.57
2019-03-30T01:35:14.800Z,9.17
2019-03-30T01:37:46.210Z,9.63
2019-03-30T01:40:17.419Z,10.03
2019-03-30T01:42:48.602Z,10.23
2019-03-30T01:45:19.881Z,9.63
2019-03-30T01:47:51.067Z,9.57
2019-03-30T01:50:22.342Z,9.20
2019-03-30T01:52:53.527Z,9.37
2019-03-30T01:55:24.717Z,9.47
2019-03-30T01:57:55.880Z,9.40
2019-03-30T02:00:28.166Z,9.90
2019-03-30T02:02:59.250Z,9.60
2019-03-30T02:05:30.529Z,9.67
2019-03-30T02:08:01.690Z,9.63
2019-03-30T02:10:48.835Z,9.20
2019-03-30T02:13:20.182Z,10.07
2019-03-30T02:15:51.410Z,10.33
2019-03-30T02:18:22.644Z,9.53
2019-03-30T02:20:53.901Z,10.03
2019-03-30T02:23:25.267Z,11.60
2019-03-30T02:25:56.558Z,10.57
2019-03-30T02:28:27.849Z,10.20
2019-03-30T02:30:59.146Z,10.87
2019-03-30T02:33:30.373Z,10.50
2019-03-30T02:36:01.632Z,10.13
2019-03-30T02:38:32.906Z,10.67
2019-03-30T02:41:04.243Z,10.57
2019-03-30T02:43:35.478Z,10.10
2019-03-30T02:46:06.822Z,10.47
2019-03-30T02:48:38.011Z,10.30
2019-03-30T02:51:09.417Z,10.53
2019-03-30T02:53:40.832Z,11.20
2019-03-30T02:56:12.060Z,11.03
2019-03-30T02:58:43.205Z,9.77
2019-03-30T03:01:14.431Z,10.97
2019-03-30T03:03:45.672Z,10.70
2019-03-30T03:06:17.035Z,10.97
2019-03-30T03:08:48.220Z,9.80
2019-03-30T03:11:19.487Z,10.90
2019-03-30T03:13:50.664Z,10.83
2019-03-30T03:16:22.031Z,10.77
2019-03-30T03:18:53.309Z,10.37
2019-03-30T03:21:24.604Z,9.77
2019-03-30T03:23:55.831Z,10.17
2019-03-30T03:26:27.065Z,11.20
2019-03-30T03:28:58.325Z,11.53
2019-03-30T03:31:29.709Z,11.10
2019-03-30T03:34:01.004Z,10.70
2019-03-30T03:36:32.318Z,11.53
2019-03-30T03:39:04.441Z,11.10
2019-03-30T03:41:35.735Z,11.30
2019-03-30T03:44:06.982Z,12.20
2019-03-30T03:46:38.286Z,11.50
2019-03-30T03:49:09.592Z,11.67
2019-03-30T03:51:41.050Z,11.10
2019-03-30T03:54:12.386Z,10.80
2019-03-30T03:56:45.451Z,10.57
2019-03-30T03:59:17.068Z,10.23
2019-03-30T04:01:51.405Z,10.90
2019-03-30T04:04:25.236Z,11.27
2019-03-30T04:07:01.200Z,11.10
2019-03-30T04:09:35.094Z,11.50
2019-03-30T04:12:08.513Z,11.77
2019-03-30T04:14:41.620Z,10.90
2019-03-30T04:17:12.896Z,11.53
2019-03-30T04:19:44.404Z,11.33
2019-03-30T04:22:15.759Z,11.63
2019-03-30T04:24:47.075Z,11.00
2019-03-30T04:27:18.332Z,11.37
2019-03-30T04:29:49.539Z,11.00
2019-03-30T04:32:20.844Z,10.90
2019-03-30T04:34:52.020Z,11.40
2019-03-30T04:37:23.266Z,10.57
2019-03-30T04:39:54.511Z,10.77
2019-03-30T04:42:25.778Z,11.07
2019-03-30T04:44:57.074Z,11.93
2019-03-30T04:47:28.311Z,11.87
2019-03-30T04:49:59.568Z,11.07
2019-03-30T04:52:30.994Z,11.57
2019-03-30T04:55:02.250Z,11.03
2019-03-30T04:57:33.566Z,11.73
2019-03-30T05:00:05.402Z,11.37
2019-03-30T05:02:36.638Z,11.30
2019-03-30T05:05:09.096Z,11.77
2019-03-30T05:07:40.392Z,11.63
2019-03-30T05:10:11.697Z,10.63
2019-03-30T05:12:43.004Z,12.07
2019-03-30T05:15:14.210Z,11.53
2019-03-30T05:17:47.852Z,11.83
2019-03-30T05:20:18.344Z,12.00
2019-03-30T05:22:51.385Z,11.57
2019-03-30T05:25:22.466Z,11.40
2019-03-30T05:27:53.794Z,11.07
2019-03-30T05:30:25.028Z,10.40
2019-03-30T05:33:05.614Z,10.97
2019-03-30T05:35:32.354Z,11.63
2019-03-30T05:38:03.690Z,11.87
2019-03-30T05:40:34.965Z,13.10
2019-03-30T05:43:06.242Z,13.00
2019-03-30T05:45:37.815Z,14.40
2019-03-30T05:48:09.033Z,13.07
2019-03-30T05:50:40.335Z,12.83
2019-03-30T05:53:11.929Z,12.67
2019-03-30T05:55:43.243Z,14.43
2019-03-30T05:58:14.529Z,11.93
2019-03-30T06:00:45.775Z,12.47
2019-03-30T06:03:17.074Z,12.30
2019-03-30T06:05:48.458Z,11.83
2019-03-30T06:08:19.694Z,10.97
2019-03-30T06:10:50.950Z,10.77
2019-03-30T06:13:22.287Z,9.87
2019-03-30T06:15:53.735Z,10.30
2019-03-30T06:18:25.099Z,9.77
2019-03-30T06:20:56.358Z,10.70
2019-03-30T06:23:27.623Z,10.37
2019-03-30T06:25:58.929Z,10.77
2019-03-30T06:28:30.726Z,10.60
2019-03-30T06:31:01.981Z,10.20
2019-03-30T06:33:33.227Z,10.20
2019-03-30T06:36:04.474Z,9.63
2019-03-30T06:38:35.660Z,10.60
2019-03-30T06:41:07.036Z,10.77
2019-03-30T06:43:38.306Z,9.80
2019-03-30T06:46:09.592Z,10.23
2019-03-30T06:48:40.766Z,10.50
2019-03-30T06:51:12.073Z,10.13
2019-03-30T06:53:43.318Z,10.47
2019-03-30T06:56:14.564Z,10.10
2019-03-30T06:58:45.721Z,10.40
2019-03-30T07:01:17.027Z,8.90
2019-03-30T07:03:48.381Z,10.90
2019-03-30T07:06:20.692Z,9.97
2019-03-30T07:08:54.107Z,9.67
2019-03-30T07:11:28.224Z,10.00
2019-03-30T07:14:02.821Z,10.17
2019-03-30T07:16:36.652Z,9.83
2019-03-30T07:19:07.820Z,9.00
2019-03-30T07:21:39.124Z,9.77
2019-03-30T07:24:10.418Z,9.57
2019-03-30T07:26:41.644Z,8.70
2019-03-30T07:29:12.852Z,9.03
2019-03-30T07:31:44.132Z,9.47
2019-03-30T07:34:15.367Z,8.87
2019-03-30T07:36:46.660Z,9.60
2019-03-30T07:39:17.937Z,9.63
2019-03-30T07:41:49.223Z,10.00
2019-03-30T07:44:20.491Z,9.87
2019-03-30T07:46:51.782Z,9.93
2019-03-30T07:49:23.052Z,9.93
2019-03-30T07:51:54.392Z,9.70
2019-03-30T07:54:25.706Z,11.10
2019-03-30T07:57:04.584Z,9.97
2019-03-30T07:59:29.899Z,10.13
2019-03-30T08:02:01.155Z,11.70
2019-03-30T08:04:32.361Z,9.47
2019-03-30T08:07:03.721Z,9.53
2019-03-30T08:09:37.216Z,9.80
2019-03-30T08:12:07.951Z,9.27
2019-03-30T08:14:39.347Z,9.33
2019-03-30T08:17:10.705Z,10.40
2019-03-30T08:19:41.942Z,9.97
2019-03-30T08:22:13.216Z,10.08
2019-03-30T08:24:44.554Z,9.65
2019-03-30T08:27:16.184Z,9.78
2019-03-30T08:29:47.380Z,9.48
2019-03-30T08:32:18.666Z,8.93
2019-03-30T08:34:49.959Z,9.58
2019-03-30T08:37:21.226Z,10.10
2019-03-30T08:39:52.457Z,10.78
2019-03-30T08:42:23.837Z,10.75
2019-03-30T08:44:55.095Z,10.23
2019-03-30T08:47:26.540Z,9.65
2019-03-30T08:49:57.816Z,8.63
2019-03-30T08:52:29.184Z,9.43
2019-03-30T08:55:00.478Z,9.30
2019-03-30T08:57:31.695Z,8.70
2019-03-30T09:00:03.003Z,8.97
2019-03-30T09:02:34.250Z,8.97
2019-03-30T09:05:06.466Z,8.83
2019-03-30T09:07:37.773Z,9.10
2019-03-30T09:10:09.969Z,8.73
2019-03-30T09:12:41.234Z,8.60
2019-03-30T09:15:12.502Z,8.88
2019-03-30T09:17:43.708Z,8.75
2019-03-30T09:20:15.017Z,9.73
2019-03-30T09:22:46.354Z,13.00
2019-03-30T09:25:17.687Z,9.13
2019-03-30T09:27:48.833Z,10.95
2019-03-30T09:30:20.523Z,15.78
2019-03-30T09:32:51.865Z,12.03
2019-03-30T09:35:23.153Z,10.05
2019-03-30T09:37:54.480Z,8.60
2019-03-30T09:40:25.734Z,8.53
2019-03-30T09:42:57.003Z,8.53
2019-03-30T09:45:28.346Z,8.28
2019-03-30T09:47:59.554Z,8.58
2019-03-30T09:50:30.922Z,8.23
2019-03-30T09:53:02.235Z,8.55
2019-03-30T09:55:33.556Z,8.45
2019-03-30T09:58:04.880Z,7.95
2019-03-30T10:00:36.204Z,8.13
2019-03-30T10:03:07.503Z,7.53
2019-03-30T10:05:38.877Z,8.73
2019-03-30T10:08:10.065Z,8.58
2019-03-30T10:10:41.354Z,8.63
2019-03-30T10:13:12.578Z,7.92
2019-03-30T10:15:43.962Z,7.35
2019-03-30T10:18:15.163Z,6.65
2019-03-30T10:20:46.465Z,7.45
2019-03-30T10:23:17.605Z,8.05
2019-03-30T10:25:48.878Z,8.25
2019-03-30T10:28:20.209Z,8.20
2019-03-30T10:30:51.511Z,8.30
2019-03-30T10:33:22.797Z,7.42
2019-03-30T10:35:54.139Z,7.97
2019-03-30T10:38:25.439Z,8.30
2019-03-30T10:40:56.758Z,8.45
2019-03-30T10:43:28.034Z,8.60
2019-03-30T10:45:59.289Z,7.80
2019-03-30T10:48:30.516Z,8.00
2019-03-30T10:51:01.852Z,7.57
2019-03-30T10:53:33.199Z,8.43
2019-03-30T10:56:04.647Z,8.73
2019-03-30T10:58:35.861Z,8.37
2019-03-30T11:01:07.187Z,8.60
2019-03-30T11:03:38.364Z,8.33
2019-03-30T11:06:09.891Z,8.17
2019-03-30T11:08:41.187Z,7.73
2019-03-30T11:11:12.442Z,7.73
2019-03-30T11:13:43.708Z,8.77
2019-03-30T11:16:15.036Z,8.00
2019-03-30T11:18:46.261Z,8.13
2019-03-30T11:21:17.567Z,8.17
2019-03-30T11:23:48.874Z,7.67
2019-03-30T11:26:20.100Z,6.93
2019-03-30T11:28:51.316Z,6.80
2019-03-30T11:31:22.673Z,7.47
2019-03-30T11:33:53.900Z,7.13
2019-03-30T11:36:25.097Z,7.33
2019-03-30T11:38:56.325Z,7.37
2019-03-30T11:41:27.618Z,6.37
2019-03-30T11:43:58.896Z,6.67
2019-03-30T11:46:30.191Z,6.23
2019-03-30T11:49:01.458Z,6.70
2019-03-30T11:51:32.703Z,5.70
2019-03-30T11:54:05.413Z,7.13
2019-03-30T11:56:36.876Z,7.30
2019-03-30T11:59:08.073Z,8.27
2019-03-30T12:01:39.399Z,7.17
2019-03-30T12:04:10.895Z,6.70
2019-03-30T12:06:42.102Z,6.37
2019-03-30T12:09:13.389Z,7.70
2019-03-30T12:12:03.489Z,6.93
2019-03-30T12:14:34.786Z,6.17
2019-03-30T12:17:06.102Z,6.10
2019-03-30T12:19:37.390Z,5.83
2019-03-30T12:22:08.704Z,5.53
2019-03-30T12:24:39.894Z,5.40
2019-03-30T12:27:11.206Z,4.93
2019-03-30T12:29:44.494Z,5.13
2019-03-30T12:32:15.447Z,5.40
2019-03-30T12:34:46.685Z,5.57
2019-03-30T12:37:18.023Z,8.13
2019-03-30T12:39:49.339Z,5.43
2019-03-30T12:42:20.665Z,6.33
2019-03-30T12:44:51.922Z,6.20
2019-03-30T12:47:23.178Z,5.50
2019-03-30T12:49:54.456Z,4.77
2019-03-30T12:52:26.601Z,4.10
2019-03-30T12:54:58.078Z,3.87
2019-03-30T12:57:29.374Z,3.27
2019-03-30T13:00:00.600Z,2.57
2019-03-30T13:02:31.927Z,2.90
2019-03-30T13:05:03.189Z,3.23
2019-03-30T13:07:34.550Z,3.30
2019-03-30T13:10:07.131Z,3.23
2019-03-30T13:12:38.314Z,2.67
2019-03-30T13:15:09.839Z,3.47
2019-03-30T13:17:41.016Z,2.70
2019-03-30T13:20:12.427Z,2.80
2019-03-30T13:22:43.749Z,2.90
2019-03-30T13:25:15.007Z,3.20
2019-03-30T13:27:46.350Z,3.30
2019-03-30T13:30:17.967Z,3.03
2019-03-30T13:32:53.179Z,3.07
2019-03-30T13:35:23.080Z,3.13
2019-03-30T13:37:54.306Z,2.67
2019-03-30T13:40:25.495Z,3.00
2019-03-30T13:42:56.811Z,2.33
2019-03-30T13:45:28.143Z,2.60
2019-03-30T13:47:59.453Z,2.63
2019-03-30T13:50:31.163Z,2.90
2019-03-30T13:53:02.726Z,2.50
2019-03-30T13:55:33.922Z,1.97
2019-03-30T13:58:05.327Z,2.20
2019-03-30T14:00:36.625Z,1.97
2019-03-30T14:03:07.981Z,2.50
2019-03-30T14:05:39.307Z,2.40
2019-03-30T14:08:10.577Z,2.97
2019-03-30T14:10:41.860Z,3.03
2019-03-30T14:13:13.230Z,2.50
2019-03-30T14:15:44.492Z,2.30
2019-03-30T14:18:15.778Z,2.10
2019-03-30T14:20:47.072Z,2.30
2019-03-30T14:23:18.352Z,2.53
2019-03-30T14:25:49.638Z,2.47
2019-03-30T14:28:20.944Z,2.80
2019-03-30T14:30:52.222Z,2.50
2019-03-30T14:33:23.571Z,2.40
2019-03-30T14:35:54.845Z,2.50
2019-03-30T14:38:26.210Z,2.50
2019-03-30T14:40:57.417Z,2.97
2019-03-30T14:43:28.783Z,2.40
2019-03-30T14:46:00.109Z,3.10
2019-03-30T14:48:31.405Z,2.40
2019-03-30T14:51:02.691Z,2.47
2019-03-30T14:53:34.113Z,2.90
2019-03-30T14:56:05.497Z,3.53
2019-03-30T14:58:36.815Z,2.63
2019-03-30T15:01:08.127Z,3.40
2019-03-30T15:03:39.464Z,3.07
2019-03-30T15:06:10.670Z,2.67
2019-03-30T15:08:41.928Z,3.10
2019-03-30T15:11:13.134Z,3.00
2019-03-30T15:13:44.489Z,3.30
2019-03-30T15:16:15.746Z,3.23
2019-03-30T15:18:47.072Z,2.80
2019-03-30T15:21:18.347Z,3.10
2019-03-30T15:23:49.705Z,2.90
2019-03-30T15:26:22.203Z,3.50
2019-03-30T15:28:53.669Z,2.70
2019-03-30T15:31:24.903Z,3.20
2019-03-30T15:33:56.290Z,2.87
2019-03-30T15:36:27.558Z,3.00
2019-03-30T15:38:58.892Z,3.37
2019-03-30T15:41:30.193Z,2.70
2019-03-30T15:44:01.413Z,3.10
2019-03-30T15:46:32.723Z,3.07
2019-03-30T15:49:04.019Z,3.50
2019-03-30T15:51:37.584Z,3.47
2019-03-30T15:54:08.233Z,3.33
2019-03-30T15:56:39.512Z,4.40
2019-03-30T15:59:10.735Z,3.43
2019-03-30T16:01:42.051Z,3.50
2019-03-30T16:04:13.368Z,3.87
2019-03-30T16:06:44.573Z,3.60
2019-03-30T16:09:15.924Z,3.27
2019-03-30T16:11:47.537Z,4.07
2019-03-30T16:14:18.893Z,3.43
2019-03-30T16:16:50.249Z,4.00
2019-03-30T16:19:21.565Z,4.03
2019-03-30T16:21:52.872Z,3.60
2019-03-30T16:24:24.199Z,3.30
2019-03-30T16:26:55.475Z,4.00
2019-03-30T16:29:26.812Z,3.70
2019-03-30T16:31:58.122Z,3.50
2019-03-30T16:34:29.413Z,3.50
2019-03-30T16:37:00.719Z,3.20
2019-03-30T16:39:34.792Z,4.17
2019-03-30T16:42:05.014Z,3.60
2019-03-30T16:44:36.330Z,3.40
2019-03-30T16:47:07.626Z,5.60
2019-03-30T16:49:38.896Z,7.10
2019-03-30T16:52:10.159Z,6.07
2019-03-30T16:54:41.415Z,5.87
2019-03-30T16:57:12.701Z,5.57
2019-03-30T16:59:44.081Z,10.13
2019-03-30T17:02:15.387Z,6.17
2019-03-30T17:04:46.704Z,6.93
2019-03-30T17:07:18.056Z,4.50
2019-03-30T17:09:49.354Z,4.10
2019-03-30T17:12:20.640Z,5.00
2019-03-30T17:14:51.997Z,4.30
2019-03-30T17:17:23.305Z,5.30
2019-03-30T17:19:54.663Z,4.60
2019-03-30T17:22:25.967Z,4.90
2019-03-30T17:24:58.591Z,4.50
2019-03-30T17:27:29.840Z,4.20
2019-03-30T17:30:01.164Z,4.33
2019-03-30T17:32:32.421Z,4.43
2019-03-30T17:35:03.678Z,4.00
2019-03-30T17:37:34.897Z,4.17
2019-03-30T17:40:07.197Z,3.70
2019-03-30T17:42:39.053Z,3.60
2019-03-30T17:45:11.527Z,4.60
2019-03-30T17:47:42.911Z,4.17
2019-03-30T17:50:14.986Z,3.90
2019-03-30T17:52:46.225Z,4.20
2019-03-30T17:55:17.520Z,4.10
2019-03-30T17:57:48.845Z,3.80
2019-03-30T18:00:20.643Z,3.90
2019-03-30T18:02:51.948Z,4.27
2019-03-30T18:05:23.247Z,3.90
2019-03-30T18:07:54.513Z,3.57
2019-03-30T18:10:25.661Z,3.33
2019-03-30T18:12:56.984Z,3.43
2019-03-30T18:15:28.204Z,4.80
2019-03-30T18:17:59.548Z,4.73
2019-03-30T18:20:30.824Z,4.00
2019-03-30T18:23:02.040Z,4.73
2019-03-30T18:25:33.297Z,4.80
2019-03-30T18:28:04.504Z,5.10
2019-03-30T18:30:38.973Z,4.53
2019-03-30T18:33:10.387Z,3.90
2019-03-30T18:35:41.873Z,3.93
2019-03-30T18:38:13.396Z,3.60
2019-03-30T18:40:44.806Z,3.70
2019-03-30T18:43:16.133Z,4.80
2019-03-30T18:45:47.438Z,3.90
2019-03-30T18:48:19.704Z,4.40
2019-03-30T18:50:50.961Z,3.83
2019-03-30T18:53:22.349Z,4.33
2019-03-30T18:55:53.755Z,5.17
2019-03-30T18:58:25.060Z,4.53
2019-03-30T19:00:56.365Z,4.60
2019-03-30T19:03:27.694Z,3.97
2019-03-30T19:05:58.909Z,4.10
2019-03-30T19:08:30.207Z,4.13
2019-03-30T19:11:01.552Z,4.37
2019-03-30T19:13:32.834Z,4.33
2019-03-30T19:16:04.165Z,4.33
2019-03-30T19:18:35.502Z,4.90
2019-03-30T19:21:06.749Z,6.03
2019-03-30T19:23:38.055Z,5.90
2019-03-30T19:26:09.362Z,5.20
2019-03-30T19:28:45.292Z,4.90
2019-03-30T19:31:13.538Z,5.37
2019-03-30T19:33:44.861Z,5.67
2019-03-30T19:36:16.147Z,5.43
2019-03-30T19:38:47.523Z,4.97
2019-03-30T19:41:18.840Z,5.20
2019-03-30T19:43:50.218Z,3.80
2019-03-30T19:46:21.524Z,3.87
2019-03-30T19:48:52.819Z,4.63
2019-03-30T19:51:24.137Z,3.90
2019-03-30T19:53:55.522Z,3.80
2019-03-30T19:56:27.178Z,3.57
2019-03-30T19:59:10.123Z,4.80
2019-03-30T20:01:31.582Z,4.23
2019-03-30T20:04:03.027Z,4.13
2019-03-30T20:06:34.324Z,4.60
2019-03-30T20:09:08.491Z,4.27
2019-03-30T20:11:39.691Z,4.50
2019-03-30T20:14:10.994Z,3.83
2019-03-30T20:16:42.518Z,3.77
2019-03-30T20:19:13.766Z,3.77
2019-03-30T20:21:44.994Z,3.80
2019-03-30T20:24:16.250Z,3.30
2019-03-30T20:26:47.465Z,3.87
2019-03-30T20:29:25.247Z,3.57
2019-03-30T20:31:51.711Z,4.17
2019-03-30T20:34:23.275Z,4.40
2019-03-30T20:36:54.581Z,4.13
2019-03-30T20:39:25.979Z,4.20
2019-03-30T20:41:57.314Z,4.70
2019-03-30T20:44:28.512Z,4.80
2019-03-30T20:46:59.850Z,4.77
2019-03-30T20:49:31.123Z,4.20
2019-03-30T20:52:02.466Z,4.30
2019-03-30T20:54:33.756Z,4.70
2019-03-30T20:57:05.032Z,4.60
2019-03-30T20:59:40.188Z,4.87
2019-03-30T21:02:09.346Z,5.07
2019-03-30T21:04:40.582Z,4.63
2019-03-30T21:07:11.788Z,4.97
2019-03-30T21:09:42.985Z,5.27
2019-03-30T21:12:14.224Z,4.80
2019-03-30T21:14:45.438Z,5.10
2019-03-30T21:17:16.714Z,5.43
2019-03-30T21:19:47.982Z,5.40
2019-03-30T21:22:19.317Z,5.40
2019-03-30T21:24:50.657Z,5.70
2019-03-30T21:27:21.850Z,6.33
2019-03-30T21:29:55.218Z,6.53
2019-03-30T21:32:26.593Z,5.93
2019-03-30T21:34:57.872Z,6.50
2019-03-30T21:37:29.227Z,6.27
2019-03-30T21:40:00.523Z,5.97
2019-03-30T21:42:31.821Z,6.27
2019-03-30T21:45:03.045Z,6.90
2019-03-30T21:47:34.383Z,6.20
2019-03-30T21:50:06.409Z,6.70
2019-03-30T21:52:37.666Z,7.30
2019-03-30T21:55:09.442Z,6.03
2019-03-30T21:57:40.719Z,5.80
2019-03-30T22:00:12.119Z,6.40
2019-03-30T22:02:43.402Z,6.70
2019-03-30T22:05:14.667Z,6.20
2019-03-30T22:07:45.855Z,6.47
2019-03-30T22:10:24.522Z,6.47
2019-03-30T22:12:55.855Z,7.03
2019-03-30T22:15:29.046Z,7.00
2019-03-30T22:18:00.363Z,7.53
2019-03-30T22:20:31.668Z,7.50
2019-03-30T22:23:02.865Z,7.20
2019-03-30T22:25:34.163Z,7.10
2019-03-30T22:28:05.480Z,6.97
2019-03-30T22:30:36.778Z,7.80
2019-03-30T22:33:08.110Z,7.00
2019-03-30T22:35:39.327Z,7.67
2019-03-30T22:38:10.554Z,7.83
2019-03-30T22:40:41.800Z,8.10
2019-03-30T22:43:13.067Z,8.07
2019-03-30T22:45:44.373Z,8.43
2019-03-30T22:48:15.680Z,9.07
2019-03-30T22:50:46.975Z,8.63
2019-03-30T22:53:18.276Z,9.47
2019-03-30T22:55:49.558Z,9.33
2019-03-30T22:58:20.858Z,10.73
2019-03-30T23:01:13.596Z,10.17
2019-03-30T23:03:44.833Z,9.20
2019-03-30T23:06:16.129Z,10.53
2019-03-30T23:08:47.445Z,10.60
2019-03-30T23:11:18.692Z,10.10
2019-03-30T23:13:50.008Z,9.40
2019-03-30T23:16:21.348Z,10.00
2019-03-30T23:18:52.611Z,9.27
2019-03-30T23:21:23.863Z,10.43
2019-03-30T23:23:55.165Z,10.30
2019-03-30T23:26:26.453Z,10.07
2019-03-30T23:28:59.486Z,11.03
2019-03-30T23:31:30.614Z,10.10
2019-03-30T23:34:01.941Z,10.07
2019-03-30T23:36:33.247Z,9.50
2019-03-30T23:39:06.483Z,11.47
2019-03-30T23:41:37.800Z,11.37
2019-03-30T23:44:09.082Z,11.50
2019-03-30T23:46:40.307Z,10.87
2019-03-30T23:49:11.599Z,12.00
2019-03-30T23:51:42.846Z,10.47
2019-03-30T23:54:16.292Z,12.50
2019-03-30T23:56:48.569Z,11.30
2019-03-30T23:59:19.905Z,11.53
